sensor_id;sensor_type;location;lat;lon;timestamp;P1;durP1;ratioP1;P2;durP2;ratioP2
78563;SDS011;67856;47.754;19.088;2023-12-20T00:02:55;12.57;;;7.00;;
78563;SDS011;67856;47.754;19.088;2023-12-20T00:05:57;11.50;;;6.40;;
78563;SDS011;67856;47.754;19.088;2023-12-20T00:08:59;12.95;;;6.93;;
78563;SDS011;67856;47.754;19.088;2023-12-20T00:12:02;12.82;;;6.80;;
78563;SDS011;67856;47.754;19.088;2023-12-20T00:15:04;13.32;;;6.85;;
78563;SDS011;67856;47.754;19.088;2023-12-20T00:18:07;11.20;;;6.70;;
78563;SDS011;67856;47.754;19.088;2023-12-20T00:21:10;11.70;;;6.33;;
78563;SDS011;67856;47.754;19.088;2023-12-20T00:24:12;12.50;;;6.90;;
78563;SDS011;67856;47.754;19.088;2023-12-20T00:27:15;11.95;;;6.53;;
78563;SDS011;67856;47.754;19.088;2023-12-20T00:30:17;19.05;;;9.18;;
78563;SDS011;67856;47.754;19.088;2023-12-20T00:33:19;12.67;;;6.57;;
78563;SDS011;67856;47.754;19.088;2023-12-20T00:36:22;10.57;;;6.50;;
78563;SDS011;67856;47.754;19.088;2023-12-20T00:39:24;12.98;;;7.20;;
78563;SDS011;67856;47.754;19.088;2023-12-20T00:42:27;17.23;;;9.27;;
78563;SDS011;67856;47.754;19.088;2023-12-20T00:45:29;14.50;;;8.13;;
78563;SDS011;67856;47.754;19.088;2023-12-20T00:48:31;12.57;;;6.67;;
78563;SDS011;67856;47.754;19.088;2023-12-20T00:51:34;11.67;;;6.60;;
78563;SDS011;67856;47.754;19.088;2023-12-20T00:54:36;12.70;;;6.57;;
78563;SDS011;67856;47.754;19.088;2023-12-20T00:57:39;11.30;;;6.68;;
78563;SDS011;67856;47.754;19.088;2023-12-20T01:00:41;12.25;;;6.43;;
78563;SDS011;67856;47.754;19.088;2023-12-20T01:03:45;10.77;;;6.00;;
78563;SDS011;67856;47.754;19.088;2023-12-20T01:06:48;9.63;;;5.90;;
78563;SDS011;67856;47.754;19.088;2023-12-20T01:09:50;11.70;;;6.18;;
78563;SDS011;67856;47.754;19.088;2023-12-20T01:12:53;10.52;;;5.95;;
78563;SDS011;67856;47.754;19.088;2023-12-20T01:15:55;11.35;;;6.30;;
78563;SDS011;67856;47.754;19.088;2023-12-20T01:18:58;10.93;;;6.33;;
78563;SDS011;67856;47.754;19.088;2023-12-20T01:22:00;11.20;;;6.20;;
78563;SDS011;67856;47.754;19.088;2023-12-20T01:25:03;11.30;;;6.43;;
78563;SDS011;67856;47.754;19.088;2023-12-20T01:28:06;11.00;;;5.97;;
78563;SDS011;67856;47.754;19.088;2023-12-20T01:31:08;11.20;;;6.50;;
78563;SDS011;67856;47.754;19.088;2023-12-20T01:34:11;11.40;;;6.23;;
78563;SDS011;67856;47.754;19.088;2023-12-20T01:37:13;10.50;;;6.00;;
78563;SDS011;67856;47.754;19.088;2023-12-20T01:40:16;12.07;;;6.07;;
78563;SDS011;67856;47.754;19.088;2023-12-20T01:43:19;12.15;;;5.75;;
78563;SDS011;67856;47.754;19.088;2023-12-20T01:46:21;12.63;;;6.85;;
78563;SDS011;67856;47.754;19.088;2023-12-20T01:49:24;10.53;;;6.07;;
78563;SDS011;67856;47.754;19.088;2023-12-20T01:52:26;13.00;;;6.77;;
78563;SDS011;67856;47.754;19.088;2023-12-20T01:55:30;12.80;;;6.60;;
78563;SDS011;67856;47.754;19.088;2023-12-20T01:58:34;11.23;;;6.78;;
78563;SDS011;67856;47.754;19.088;2023-12-20T02:01:36;12.73;;;6.95;;
78563;SDS011;67856;47.754;19.088;2023-12-20T02:04:39;11.53;;;6.30;;
78563;SDS011;67856;47.754;19.088;2023-12-20T02:07:41;13.37;;;6.33;;
78563;SDS011;67856;47.754;19.088;2023-12-20T02:10:44;10.50;;;5.57;;
78563;SDS011;67856;47.754;19.088;2023-12-20T02:13:47;12.93;;;6.45;;
78563;SDS011;67856;47.754;19.088;2023-12-20T02:16:49;12.02;;;6.00;;
78563;SDS011;67856;47.754;19.088;2023-12-20T02:19:52;11.43;;;6.47;;
78563;SDS011;67856;47.754;19.088;2023-12-20T02:22:54;12.93;;;6.93;;
78563;SDS011;67856;47.754;19.088;2023-12-20T02:25:57;11.60;;;6.03;;
78563;SDS011;67856;47.754;19.088;2023-12-20T02:28:59;12.25;;;6.90;;
78563;SDS011;67856;47.754;19.088;2023-12-20T02:32:02;11.95;;;6.57;;
78563;SDS011;67856;47.754;19.088;2023-12-20T02:35:05;10.20;;;5.73;;
78563;SDS011;67856;47.754;19.088;2023-12-20T02:38:07;11.23;;;6.27;;
78563;SDS011;67856;47.754;19.088;2023-12-20T02:41:10;10.13;;;5.85;;
78563;SDS011;67856;47.754;19.088;2023-12-20T02:44:12;11.07;;;6.22;;
78563;SDS011;67856;47.754;19.088;2023-12-20T02:47:15;9.70;;;5.82;;
78563;SDS011;67856;47.754;19.088;2023-12-20T02:50:17;11.53;;;6.33;;
78563;SDS011;67856;47.754;19.088;2023-12-20T02:53:20;9.90;;;5.87;;
78563;SDS011;67856;47.754;19.088;2023-12-20T02:56:22;9.52;;;5.40;;
78563;SDS011;67856;47.754;19.088;2023-12-20T02:59:24;10.45;;;6.22;;
78563;SDS011;67856;47.754;19.088;2023-12-20T03:02:27;10.38;;;6.05;;
78563;SDS011;67856;47.754;19.088;2023-12-20T03:05:29;9.00;;;5.60;;
78563;SDS011;67856;47.754;19.088;2023-12-20T03:08:32;10.97;;;6.40;;
78563;SDS011;67856;47.754;19.088;2023-12-20T03:11:34;10.25;;;5.93;;
78563;SDS011;67856;47.754;19.088;2023-12-20T03:14:36;10.68;;;5.85;;
78563;SDS011;67856;47.754;19.088;2023-12-20T03:17:39;10.88;;;6.03;;
78563;SDS011;67856;47.754;19.088;2023-12-20T03:20:41;8.87;;;5.37;;
78563;SDS011;67856;47.754;19.088;2023-12-20T03:23:44;8.90;;;5.17;;
78563;SDS011;67856;47.754;19.088;2023-12-20T03:26:47;9.65;;;5.68;;
78563;SDS011;67856;47.754;19.088;2023-12-20T03:29:50;8.68;;;5.25;;
78563;SDS011;67856;47.754;19.088;2023-12-20T03:32:52;8.27;;;5.13;;
78563;SDS011;67856;47.754;19.088;2023-12-20T03:35:54;10.73;;;5.70;;
78563;SDS011;67856;47.754;19.088;2023-12-20T03:38:57;7.23;;;4.77;;
78563;SDS011;67856;47.754;19.088;2023-12-20T03:41:59;8.13;;;5.07;;
78563;SDS011;67856;47.754;19.088;2023-12-20T03:45:02;8.60;;;5.00;;
78563;SDS011;67856;47.754;19.088;2023-12-20T03:48:04;8.00;;;4.85;;
78563;SDS011;67856;47.754;19.088;2023-12-20T03:51:07;6.97;;;4.70;;
78563;SDS011;67856;47.754;19.088;2023-12-20T03:54:10;7.63;;;4.33;;
78563;SDS011;67856;47.754;19.088;2023-12-20T03:57:12;8.80;;;4.63;;
78563;SDS011;67856;47.754;19.088;2023-12-20T04:00:15;6.93;;;4.60;;
78563;SDS011;67856;47.754;19.088;2023-12-20T04:03:18;8.63;;;5.10;;
78563;SDS011;67856;47.754;19.088;2023-12-20T04:06:21;7.40;;;4.67;;
78563;SDS011;67856;47.754;19.088;2023-12-20T04:09:23;7.90;;;4.70;;
78563;SDS011;67856;47.754;19.088;2023-12-20T04:12:27;7.93;;;4.78;;
78563;SDS011;67856;47.754;19.088;2023-12-20T04:15:30;6.57;;;4.43;;
78563;SDS011;67856;47.754;19.088;2023-12-20T04:18:32;7.20;;;4.50;;
78563;SDS011;67856;47.754;19.088;2023-12-20T04:21:35;6.67;;;4.43;;
78563;SDS011;67856;47.754;19.088;2023-12-20T04:24:37;8.00;;;4.80;;
78563;SDS011;67856;47.754;19.088;2023-12-20T04:27:40;7.45;;;4.78;;
78563;SDS011;67856;47.754;19.088;2023-12-20T04:30:43;7.35;;;4.80;;
78563;SDS011;67856;47.754;19.088;2023-12-20T04:33:45;6.60;;;4.38;;
78563;SDS011;67856;47.754;19.088;2023-12-20T04:36:48;7.00;;;4.40;;
78563;SDS011;67856;47.754;19.088;2023-12-20T04:39:50;7.33;;;4.60;;
78563;SDS011;67856;47.754;19.088;2023-12-20T04:42:53;7.25;;;4.72;;
78563;SDS011;67856;47.754;19.088;2023-12-20T04:45:55;6.30;;;4.55;;
78563;SDS011;67856;47.754;19.088;2023-12-20T04:48:58;8.05;;;5.30;;
78563;SDS011;67856;47.754;19.088;2023-12-20T04:52:01;8.40;;;4.80;;
78563;SDS011;67856;47.754;19.088;2023-12-20T04:55:05;6.63;;;4.40;;
78563;SDS011;67856;47.754;19.088;2023-12-20T04:58:08;7.15;;;4.60;;
78563;SDS011;67856;47.754;19.088;2023-12-20T05:01:10;6.85;;;4.53;;
78563;SDS011;67856;47.754;19.088;2023-12-20T05:04:14;7.13;;;4.20;;
78563;SDS011;67856;47.754;19.088;2023-12-20T05:07:16;7.63;;;4.40;;
78563;SDS011;67856;47.754;19.088;2023-12-20T05:10:19;6.27;;;4.10;;
78563;SDS011;67856;47.754;19.088;2023-12-20T05:13:24;5.72;;;4.25;;
78563;SDS011;67856;47.754;19.088;2023-12-20T05:16:42;7.72;;;4.35;;
78563;SDS011;67856;47.754;19.088;2023-12-20T05:19:45;8.38;;;4.18;;
78563;SDS011;67856;47.754;19.088;2023-12-20T05:22:47;10.73;;;4.67;;
78563;SDS011;67856;47.754;19.088;2023-12-20T05:25:50;8.13;;;4.40;;
78563;SDS011;67856;47.754;19.088;2023-12-20T05:28:52;8.02;;;4.35;;
78563;SDS011;67856;47.754;19.088;2023-12-20T05:31:55;9.80;;;4.20;;
78563;SDS011;67856;47.754;19.088;2023-12-20T05:34:57;11.70;;;4.80;;
78563;SDS011;67856;47.754;19.088;2023-12-20T05:38:00;10.13;;;4.37;;
78563;SDS011;67856;47.754;19.088;2023-12-20T05:41:02;8.13;;;4.57;;
78563;SDS011;67856;47.754;19.088;2023-12-20T05:44:05;8.30;;;4.65;;
78563;SDS011;67856;47.754;19.088;2023-12-20T05:47:08;7.35;;;4.43;;
78563;SDS011;67856;47.754;19.088;2023-12-20T05:50:10;10.15;;;5.07;;
78563;SDS011;67856;47.754;19.088;2023-12-20T05:53:13;6.20;;;4.20;;
78563;SDS011;67856;47.754;19.088;2023-12-20T05:56:15;6.60;;;4.17;;
78563;SDS011;67856;47.754;19.088;2023-12-20T05:59:18;8.77;;;4.55;;
78563;SDS011;67856;47.754;19.088;2023-12-20T06:02:20;8.38;;;4.28;;
78563;SDS011;67856;47.754;19.088;2023-12-20T06:05:23;9.77;;;4.45;;
78563;SDS011;67856;47.754;19.088;2023-12-20T06:08:25;7.57;;;4.57;;
78563;SDS011;67856;47.754;19.088;2023-12-20T06:11:27;8.80;;;5.00;;
78563;SDS011;67856;47.754;19.088;2023-12-20T06:14:30;10.02;;;5.15;;
78563;SDS011;67856;47.754;19.088;2023-12-20T06:17:32;8.65;;;4.70;;
78563;SDS011;67856;47.754;19.088;2023-12-20T06:20:37;8.48;;;5.00;;
78563;SDS011;67856;47.754;19.088;2023-12-20T06:23:39;7.63;;;4.70;;
78563;SDS011;67856;47.754;19.088;2023-12-20T06:26:42;9.03;;;5.03;;
78563;SDS011;67856;47.754;19.088;2023-12-20T06:29:45;13.90;;;7.82;;
78563;SDS011;67856;47.754;19.088;2023-12-20T06:32:47;12.38;;;6.30;;
78563;SDS011;67856;47.754;19.088;2023-12-20T06:35:50;11.45;;;5.78;;
78563;SDS011;67856;47.754;19.088;2023-12-20T06:38:52;10.83;;;5.67;;
78563;SDS011;67856;47.754;19.088;2023-12-20T06:41:55;11.50;;;5.80;;
78563;SDS011;67856;47.754;19.088;2023-12-20T06:44:58;11.45;;;5.50;;
78563;SDS011;67856;47.754;19.088;2023-12-20T06:48:00;10.02;;;6.20;;
78563;SDS011;67856;47.754;19.088;2023-12-20T06:51:03;13.25;;;6.50;;
78563;SDS011;67856;47.754;19.088;2023-12-20T06:54:05;11.27;;;6.40;;
78563;SDS011;67856;47.754;19.088;2023-12-20T06:57:08;11.27;;;6.13;;
78563;SDS011;67856;47.754;19.088;2023-12-20T07:00:11;12.85;;;5.85;;
78563;SDS011;67856;47.754;19.088;2023-12-20T07:03:13;10.32;;;5.50;;
78563;SDS011;67856;47.754;19.088;2023-12-20T07:06:17;11.05;;;5.63;;
78563;SDS011;67856;47.754;19.088;2023-12-20T07:09:19;14.00;;;5.87;;
78563;SDS011;67856;47.754;19.088;2023-12-20T07:12:22;12.00;;;5.73;;
78563;SDS011;67856;47.754;19.088;2023-12-20T07:15:24;17.17;;;6.10;;
78563;SDS011;67856;47.754;19.088;2023-12-20T07:18:26;13.18;;;6.45;;
78563;SDS011;67856;47.754;19.088;2023-12-20T07:21:29;12.15;;;5.90;;
78563;SDS011;67856;47.754;19.088;2023-12-20T07:24:32;12.63;;;6.10;;
78563;SDS011;67856;47.754;19.088;2023-12-20T07:27:35;19.73;;;5.90;;
78563;SDS011;67856;47.754;19.088;2023-12-20T07:30:37;18.02;;;6.70;;
78563;SDS011;67856;47.754;19.088;2023-12-20T07:33:40;15.52;;;6.38;;
78563;SDS011;67856;47.754;19.088;2023-12-20T07:36:43;13.38;;;6.03;;
78563;SDS011;67856;47.754;19.088;2023-12-20T07:39:47;16.57;;;7.60;;
78563;SDS011;67856;47.754;19.088;2023-12-20T07:42:50;15.33;;;6.67;;
78563;SDS011;67856;47.754;19.088;2023-12-20T07:45:53;13.60;;;6.50;;
78563;SDS011;67856;47.754;19.088;2023-12-20T07:48:56;14.57;;;6.78;;
78563;SDS011;67856;47.754;19.088;2023-12-20T07:51:59;11.10;;;6.32;;
78563;SDS011;67856;47.754;19.088;2023-12-20T07:55:01;15.63;;;6.63;;
78563;SDS011;67856;47.754;19.088;2023-12-20T07:58:04;15.60;;;7.53;;
78563;SDS011;67856;47.754;19.088;2023-12-20T08:01:07;18.75;;;6.95;;
78563;SDS011;67856;47.754;19.088;2023-12-20T08:04:10;17.58;;;7.45;;
78563;SDS011;67856;47.754;19.088;2023-12-20T08:07:14;21.55;;;6.90;;
78563;SDS011;67856;47.754;19.088;2023-12-20T08:10:17;18.03;;;7.00;;
78563;SDS011;67856;47.754;19.088;2023-12-20T08:13:21;20.07;;;6.70;;
78563;SDS011;67856;47.754;19.088;2023-12-20T08:16:28;13.15;;;6.55;;
78563;SDS011;67856;47.754;19.088;2023-12-20T08:19:30;13.13;;;6.90;;
78563;SDS011;67856;47.754;19.088;2023-12-20T08:22:33;13.43;;;7.18;;
78563;SDS011;67856;47.754;19.088;2023-12-20T08:25:36;12.47;;;6.20;;
78563;SDS011;67856;47.754;19.088;2023-12-20T08:28:39;10.63;;;5.70;;
78563;SDS011;67856;47.754;19.088;2023-12-20T08:31:41;14.23;;;6.30;;
78563;SDS011;67856;47.754;19.088;2023-12-20T08:34:44;13.10;;;6.15;;
78563;SDS011;67856;47.754;19.088;2023-12-20T08:37:47;11.25;;;5.60;;
78563;SDS011;67856;47.754;19.088;2023-12-20T08:40:50;11.40;;;5.90;;
78563;SDS011;67856;47.754;19.088;2023-12-20T08:43:53;11.07;;;5.63;;
78563;SDS011;67856;47.754;19.088;2023-12-20T08:46:56;14.60;;;5.90;;
78563;SDS011;67856;47.754;19.088;2023-12-20T08:49:59;13.18;;;5.40;;
78563;SDS011;67856;47.754;19.088;2023-12-20T08:53:04;21.17;;;5.43;;
78563;SDS011;67856;47.754;19.088;2023-12-20T08:56:07;10.60;;;5.03;;
78563;SDS011;67856;47.754;19.088;2023-12-20T08:59:10;11.87;;;5.67;;
78563;SDS011;67856;47.754;19.088;2023-12-20T09:02:13;10.63;;;6.00;;
78563;SDS011;67856;47.754;19.088;2023-12-20T09:05:16;14.68;;;6.18;;
78563;SDS011;67856;47.754;19.088;2023-12-20T09:08:21;12.25;;;6.57;;
78563;SDS011;67856;47.754;19.088;2023-12-20T09:11:24;19.40;;;5.83;;
78563;SDS011;67856;47.754;19.088;2023-12-20T09:14:27;19.27;;;7.07;;
78563;SDS011;67856;47.754;19.088;2023-12-20T11:16:14;21.75;;;7.55;;
78563;SDS011;67856;47.754;19.088;2023-12-20T11:19:17;20.33;;;7.63;;
78563;SDS011;67856;47.754;19.088;2023-12-20T11:22:20;21.37;;;7.50;;
78563;SDS011;67856;47.754;19.088;2023-12-20T11:25:24;18.90;;;7.50;;
78563;SDS011;67856;47.754;19.088;2023-12-20T11:28:27;20.90;;;7.75;;
78563;SDS011;67856;47.754;19.088;2023-12-20T11:31:29;13.63;;;6.90;;
78563;SDS011;67856;47.754;19.088;2023-12-20T11:34:42;18.73;;;6.95;;
78563;SDS011;67856;47.754;19.088;2023-12-20T11:37:45;18.43;;;7.27;;
78563;SDS011;67856;47.754;19.088;2023-12-20T11:40:50;20.57;;;6.97;;
78563;SDS011;67856;47.754;19.088;2023-12-20T11:43:53;15.85;;;7.30;;
78563;SDS011;67856;47.754;19.088;2023-12-20T11:46:57;19.25;;;7.00;;
78563;SDS011;67856;47.754;19.088;2023-12-20T11:50:00;16.73;;;7.00;;
78563;SDS011;67856;47.754;19.088;2023-12-20T11:53:06;18.30;;;7.30;;
78563;SDS011;67856;47.754;19.088;2023-12-20T11:56:08;20.27;;;7.50;;
78563;SDS011;67856;47.754;19.088;2023-12-20T11:59:12;19.83;;;7.93;;
78563;SDS011;67856;47.754;19.088;2023-12-20T12:02:24;18.65;;;7.97;;
78563;SDS011;67856;47.754;19.088;2023-12-20T12:05:28;17.23;;;8.05;;
78563;SDS011;67856;47.754;19.088;2023-12-20T12:08:30;20.40;;;9.00;;
78563;SDS011;67856;47.754;19.088;2023-12-20T12:11:33;18.43;;;7.73;;
78563;SDS011;67856;47.754;19.088;2023-12-20T12:14:36;16.58;;;8.32;;
78563;SDS011;67856;47.754;19.088;2023-12-20T12:17:39;20.85;;;9.27;;
78563;SDS011;67856;47.754;19.088;2023-12-20T12:20:42;23.73;;;8.52;;
78563;SDS011;67856;47.754;19.088;2023-12-20T12:23:47;20.73;;;8.40;;
78563;SDS011;67856;47.754;19.088;2023-12-20T12:26:50;14.40;;;7.37;;
78563;SDS011;67856;47.754;19.088;2023-12-20T12:30:03;14.82;;;7.78;;
78563;SDS011;67856;47.754;19.088;2023-12-20T12:33:09;19.65;;;7.20;;
78563;SDS011;67856;47.754;19.088;2023-12-20T12:36:12;15.88;;;7.40;;
78563;SDS011;67856;47.754;19.088;2023-12-20T12:39:15;24.57;;;9.23;;
78563;SDS011;67856;47.754;19.088;2023-12-20T12:42:20;17.40;;;8.23;;
78563;SDS011;67856;47.754;19.088;2023-12-20T12:45:30;15.23;;;6.88;;
78563;SDS011;67856;47.754;19.088;2023-12-20T12:48:33;21.75;;;6.35;;
78563;SDS011;67856;47.754;19.088;2023-12-20T12:51:36;13.85;;;6.53;;
78563;SDS011;67856;47.754;19.088;2023-12-20T12:54:38;14.33;;;6.50;;
78563;SDS011;67856;47.754;19.088;2023-12-20T12:57:41;16.27;;;6.83;;
78563;SDS011;67856;47.754;19.088;2023-12-20T13:00:44;14.15;;;7.03;;
78563;SDS011;67856;47.754;19.088;2023-12-20T13:03:47;22.48;;;7.28;;
78563;SDS011;67856;47.754;19.088;2023-12-20T13:06:49;21.60;;;7.22;;
78563;SDS011;67856;47.754;19.088;2023-12-20T13:09:52;14.93;;;7.17;;
78563;SDS011;67856;47.754;19.088;2023-12-20T13:12:55;13.50;;;6.60;;
78563;SDS011;67856;47.754;19.088;2023-12-20T13:15:58;21.88;;;7.55;;
78563;SDS011;67856;47.754;19.088;2023-12-20T13:19:00;31.27;;;8.40;;
78563;SDS011;67856;47.754;19.088;2023-12-20T13:22:03;31.05;;;8.13;;
78563;SDS011;67856;47.754;19.088;2023-12-20T13:25:06;18.17;;;8.10;;
78563;SDS011;67856;47.754;19.088;2023-12-20T13:28:09;26.80;;;8.30;;
78563;SDS011;67856;47.754;19.088;2023-12-20T13:31:11;18.27;;;8.18;;
78563;SDS011;67856;47.754;19.088;2023-12-20T13:34:14;18.67;;;7.72;;
78563;SDS011;67856;47.754;19.088;2023-12-20T13:37:19;19.88;;;7.50;;
78563;SDS011;67856;47.754;19.088;2023-12-20T13:40:23;17.30;;;6.77;;
78563;SDS011;67856;47.754;19.088;2023-12-20T13:43:25;17.90;;;7.70;;
78563;SDS011;67856;47.754;19.088;2023-12-20T13:46:28;19.58;;;7.22;;
78563;SDS011;67856;47.754;19.088;2023-12-20T13:49:31;15.52;;;7.28;;
78563;SDS011;67856;47.754;19.088;2023-12-20T13:52:34;21.83;;;7.75;;
78563;SDS011;67856;47.754;19.088;2023-12-20T13:55:40;21.10;;;7.10;;
78563;SDS011;67856;47.754;19.088;2023-12-20T13:58:43;17.83;;;7.17;;
78563;SDS011;67856;47.754;19.088;2023-12-20T14:01:45;19.85;;;7.30;;
78563;SDS011;67856;47.754;19.088;2023-12-20T14:04:48;13.50;;;6.93;;
78563;SDS011;67856;47.754;19.088;2023-12-20T14:07:50;22.88;;;6.88;;
78563;SDS011;67856;47.754;19.088;2023-12-20T14:10:53;18.73;;;6.40;;
78563;SDS011;67856;47.754;19.088;2023-12-20T14:13:56;22.77;;;6.60;;
78563;SDS011;67856;47.754;19.088;2023-12-20T14:17:00;18.65;;;6.60;;
78563;SDS011;67856;47.754;19.088;2023-12-20T14:20:05;17.85;;;6.55;;
78563;SDS011;67856;47.754;19.088;2023-12-20T14:23:09;16.40;;;6.10;;
78563;SDS011;67856;47.754;19.088;2023-12-20T14:26:11;21.83;;;7.30;;
78563;SDS011;67856;47.754;19.088;2023-12-20T14:29:19;20.10;;;6.67;;
78563;SDS011;67856;47.754;19.088;2023-12-20T14:32:22;17.00;;;6.35;;
78563;SDS011;67856;47.754;19.088;2023-12-20T14:35:24;16.75;;;6.40;;
78563;SDS011;67856;47.754;19.088;2023-12-20T14:38:27;15.15;;;6.00;;
78563;SDS011;67856;47.754;19.088;2023-12-20T14:41:30;13.17;;;5.90;;
78563;SDS011;67856;47.754;19.088;2023-12-20T14:44:35;16.83;;;6.43;;
78563;SDS011;67856;47.754;19.088;2023-12-20T14:47:37;22.33;;;5.97;;
78563;SDS011;67856;47.754;19.088;2023-12-20T14:50:40;19.30;;;6.72;;
78563;SDS011;67856;47.754;19.088;2023-12-20T14:53:42;21.02;;;7.25;;
78563;SDS011;67856;47.754;19.088;2023-12-20T14:56:45;15.70;;;6.10;;
78563;SDS011;67856;47.754;19.088;2023-12-20T14:59:48;19.67;;;6.20;;
78563;SDS011;67856;47.754;19.088;2023-12-20T15:02:50;20.25;;;6.90;;
78563;SDS011;67856;47.754;19.088;2023-12-20T15:05:53;15.23;;;6.40;;
78563;SDS011;67856;47.754;19.088;2023-12-20T15:08:55;13.82;;;6.10;;
78563;SDS011;67856;47.754;19.088;2023-12-20T15:11:58;19.57;;;6.00;;
78563;SDS011;67856;47.754;19.088;2023-12-20T15:15:00;20.97;;;6.10;;
78563;SDS011;67856;47.754;19.088;2023-12-20T15:18:03;15.68;;;6.40;;
78563;SDS011;67856;47.754;19.088;2023-12-20T15:21:06;14.70;;;5.50;;
78563;SDS011;67856;47.754;19.088;2023-12-20T15:24:09;19.67;;;5.18;;
78563;SDS011;67856;47.754;19.088;2023-12-20T15:27:18;17.33;;;5.80;;
78563;SDS011;67856;47.754;19.088;2023-12-20T15:30:25;16.00;;;5.90;;
78563;SDS011;67856;47.754;19.088;2023-12-20T15:33:27;14.73;;;5.55;;
78563;SDS011;67856;47.754;19.088;2023-12-20T15:36:29;16.88;;;5.78;;
78563;SDS011;67856;47.754;19.088;2023-12-20T15:39:32;13.35;;;5.40;;
78563;SDS011;67856;47.754;19.088;2023-12-20T15:42:34;20.63;;;5.50;;
78563;SDS011;67856;47.754;19.088;2023-12-20T15:45:38;16.10;;;5.70;;
78563;SDS011;67856;47.754;19.088;2023-12-20T15:48:42;10.80;;;5.22;;
78563;SDS011;67856;47.754;19.088;2023-12-20T15:51:44;11.75;;;5.15;;
78563;SDS011;67856;47.754;19.088;2023-12-20T15:54:47;11.98;;;5.28;;
78563;SDS011;67856;47.754;19.088;2023-12-20T15:57:50;10.50;;;5.27;;
78563;SDS011;67856;47.754;19.088;2023-12-20T16:00:56;15.87;;;5.43;;
78563;SDS011;67856;47.754;19.088;2023-12-20T16:03:59;10.07;;;5.10;;
78563;SDS011;67856;47.754;19.088;2023-12-20T16:07:01;14.73;;;5.20;;
78563;SDS011;67856;47.754;19.088;2023-12-20T16:10:04;13.60;;;4.47;;
78563;SDS011;67856;47.754;19.088;2023-12-20T16:13:07;13.63;;;4.73;;
78563;SDS011;67856;47.754;19.088;2023-12-20T16:16:11;14.90;;;5.10;;
78563;SDS011;67856;47.754;19.088;2023-12-20T16:19:13;14.90;;;5.60;;
78563;SDS011;67856;47.754;19.088;2023-12-20T16:22:16;13.00;;;5.20;;
78563;SDS011;67856;47.754;19.088;2023-12-20T16:25:18;16.73;;;5.10;;
78563;SDS011;67856;47.754;19.088;2023-12-20T16:28:21;10.53;;;5.37;;
78563;SDS011;67856;47.754;19.088;2023-12-20T16:31:24;15.43;;;5.00;;
78563;SDS011;67856;47.754;19.088;2023-12-20T16:34:27;10.38;;;4.93;;
78563;SDS011;67856;47.754;19.088;2023-12-20T16:37:29;9.52;;;4.75;;
78563;SDS011;67856;47.754;19.088;2023-12-20T16:40:32;13.18;;;5.53;;
78563;SDS011;67856;47.754;19.088;2023-12-20T16:43:35;9.13;;;5.03;;
78563;SDS011;67856;47.754;19.088;2023-12-20T16:46:37;11.73;;;4.67;;
78563;SDS011;67856;47.754;19.088;2023-12-20T16:49:40;13.82;;;5.45;;
78563;SDS011;67856;47.754;19.088;2023-12-20T16:52:43;14.05;;;5.40;;
78563;SDS011;67856;47.754;19.088;2023-12-20T16:55:48;11.88;;;6.40;;
78563;SDS011;67856;47.754;19.088;2023-12-20T16:58:50;13.63;;;5.63;;
78563;SDS011;67856;47.754;19.088;2023-12-20T17:01:53;14.23;;;6.30;;
78563;SDS011;67856;47.754;19.088;2023-12-20T17:04:56;11.88;;;5.70;;
78563;SDS011;67856;47.754;19.088;2023-12-20T17:07:59;12.00;;;5.90;;
78563;SDS011;67856;47.754;19.088;2023-12-20T17:11:01;10.57;;;5.10;;
78563;SDS011;67856;47.754;19.088;2023-12-20T17:14:04;11.07;;;6.30;;
78563;SDS011;67856;47.754;19.088;2023-12-20T17:17:06;14.90;;;5.90;;
78563;SDS011;67856;47.754;19.088;2023-12-20T17:20:10;15.30;;;6.03;;
78563;SDS011;67856;47.754;19.088;2023-12-20T17:23:13;15.50;;;6.60;;
78563;SDS011;67856;47.754;19.088;2023-12-20T17:26:15;13.32;;;6.05;;
78563;SDS011;67856;47.754;19.088;2023-12-20T17:29:18;12.70;;;5.90;;
78563;SDS011;67856;47.754;19.088;2023-12-20T17:32:20;13.33;;;5.70;;
78563;SDS011;67856;47.754;19.088;2023-12-20T17:35:22;12.27;;;6.18;;
78563;SDS011;67856;47.754;19.088;2023-12-20T17:38:25;11.40;;;5.95;;
78563;SDS011;67856;47.754;19.088;2023-12-20T17:41:27;11.35;;;5.13;;
78563;SDS011;67856;47.754;19.088;2023-12-20T17:44:30;10.60;;;4.83;;
78563;SDS011;67856;47.754;19.088;2023-12-20T17:47:32;10.40;;;4.60;;
78563;SDS011;67856;47.754;19.088;2023-12-20T17:50:35;12.05;;;4.50;;
78563;SDS011;67856;47.754;19.088;2023-12-20T17:53:37;7.22;;;4.55;;
78563;SDS011;67856;47.754;19.088;2023-12-20T17:56:40;9.85;;;4.90;;
78563;SDS011;67856;47.754;19.088;2023-12-20T17:59:42;8.80;;;4.37;;
78563;SDS011;67856;47.754;19.088;2023-12-20T18:02:45;8.47;;;4.10;;
78563;SDS011;67856;47.754;19.088;2023-12-20T18:05:48;10.50;;;4.22;;
78563;SDS011;67856;47.754;19.088;2023-12-20T18:08:51;8.52;;;4.32;;
78563;SDS011;67856;47.754;19.088;2023-12-20T18:11:53;8.18;;;4.03;;
78563;SDS011;67856;47.754;19.088;2023-12-20T18:14:55;9.20;;;3.80;;
78563;SDS011;67856;47.754;19.088;2023-12-20T18:17:59;10.27;;;4.23;;
78563;SDS011;67856;47.754;19.088;2023-12-20T18:21:01;8.20;;;4.13;;
78563;SDS011;67856;47.754;19.088;2023-12-20T18:24:04;6.30;;;3.92;;
78563;SDS011;67856;47.754;19.088;2023-12-20T18:27:12;7.75;;;4.28;;
78563;SDS011;67856;47.754;19.088;2023-12-20T18:30:14;8.53;;;4.10;;
78563;SDS011;67856;47.754;19.088;2023-12-20T18:33:18;6.90;;;4.20;;
78563;SDS011;67856;47.754;19.088;2023-12-20T18:36:21;9.50;;;4.50;;
78563;SDS011;67856;47.754;19.088;2023-12-20T18:39:23;8.27;;;3.97;;
78563;SDS011;67856;47.754;19.088;2023-12-20T18:42:26;7.05;;;3.65;;
78563;SDS011;67856;47.754;19.088;2023-12-20T18:45:29;7.93;;;4.03;;
78563;SDS011;67856;47.754;19.088;2023-12-20T18:48:31;6.17;;;4.10;;
78563;SDS011;67856;47.754;19.088;2023-12-20T18:51:35;9.15;;;5.10;;
78563;SDS011;67856;47.754;19.088;2023-12-20T18:54:38;9.70;;;6.22;;
78563;SDS011;67856;47.754;19.088;2023-12-20T18:57:40;12.52;;;5.20;;
78563;SDS011;67856;47.754;19.088;2023-12-20T19:00:42;8.77;;;4.90;;
78563;SDS011;67856;47.754;19.088;2023-12-20T19:03:45;9.93;;;5.13;;
78563;SDS011;67856;47.754;19.088;2023-12-20T19:06:48;12.20;;;5.28;;
78563;SDS011;67856;47.754;19.088;2023-12-20T19:09:51;8.82;;;4.43;;
78563;SDS011;67856;47.754;19.088;2023-12-20T19:12:54;7.55;;;3.95;;
78563;SDS011;67856;47.754;19.088;2023-12-20T19:15:57;8.67;;;4.50;;
78563;SDS011;67856;47.754;19.088;2023-12-20T19:19:00;9.67;;;4.50;;
78563;SDS011;67856;47.754;19.088;2023-12-20T19:22:03;7.57;;;4.88;;
78563;SDS011;67856;47.754;19.088;2023-12-20T19:25:05;8.90;;;4.70;;
78563;SDS011;67856;47.754;19.088;2023-12-20T19:28:10;9.00;;;5.65;;
78563;SDS011;67856;47.754;19.088;2023-12-20T19:31:13;9.90;;;5.40;;
78563;SDS011;67856;47.754;19.088;2023-12-20T19:34:16;9.40;;;5.27;;
78563;SDS011;67856;47.754;19.088;2023-12-20T19:37:19;8.68;;;5.13;;
78563;SDS011;67856;47.754;19.088;2023-12-20T19:40:21;8.68;;;4.80;;
78563;SDS011;67856;47.754;19.088;2023-12-20T19:43:24;9.02;;;4.85;;
78563;SDS011;67856;47.754;19.088;2023-12-20T19:46:27;8.40;;;4.90;;
78563;SDS011;67856;47.754;19.088;2023-12-20T19:49:30;8.70;;;5.50;;
78563;SDS011;67856;47.754;19.088;2023-12-20T19:52:32;8.68;;;5.07;;
78563;SDS011;67856;47.754;19.088;2023-12-20T19:55:35;10.35;;;5.78;;